createdAt,value
2022-09-12T00:01:15.261Z,87.72
2022-09-12T00:03:44.674Z,87.78
2022-09-12T00:06:20.417Z,88.38
2022-09-12T00:08:50.523Z,87.27
2022-09-12T00:11:18.772Z,87.84
2022-09-12T00:13:46.690Z,87.53
2022-09-12T00:16:19.153Z,84.77
2022-09-12T00:18:48.881Z,88.64
2022-09-12T00:21:17.909Z,85.96
2022-09-12T00:23:46.282Z,88.29
2022-09-12T00:26:14.770Z,89.02
2022-09-12T00:28:43.191Z,89.45
2022-09-12T00:31:14.163Z,88.82
2022-09-12T00:33:42.902Z,86.89
2022-09-12T00:36:15.433Z,87.59
2022-09-12T00:38:43.644Z,87.60
2022-09-12T00:41:17.269Z,89.37
2022-09-12T00:43:47.924Z,89.04
2022-09-12T00:46:27.353Z,87.52
2022-09-12T00:49:04.315Z,89.26
2022-09-12T00:51:37.837Z,90.15
2022-09-12T00:54:11.748Z,89.31
2022-09-12T00:56:42.888Z,90.20
2022-09-12T00:59:15.190Z,90.10
2022-09-12T01:01:44.264Z,91.20
2022-09-12T01:04:13.666Z,87.82
2022-09-12T01:06:45.121Z,88.98
2022-09-12T01:09:18.350Z,88.72
2022-09-12T01:11:48.686Z,90.06
2022-09-12T01:14:18.467Z,90.81
2022-09-12T01:16:48.483Z,90.08
2022-09-12T01:19:36.721Z,89.76
2022-09-12T01:22:22.687Z,89.31
2022-09-12T01:25:00.367Z,89.50
2022-09-12T01:27:45.257Z,89.27
2022-09-12T01:30:42.844Z,89.47
2022-09-12T01:33:26.570Z,89.56
2022-09-12T01:36:09.483Z,89.14
2022-09-12T01:38:41.025Z,89.33
2022-09-12T01:41:17.931Z,90.83
2022-09-12T01:43:52.294Z,89.79
2022-09-12T01:46:25.849Z,89.79
2022-09-12T01:48:58.991Z,90.34
2022-09-12T01:51:32.485Z,90.48
2022-09-12T01:54:07.051Z,91.57
2022-09-12T01:56:37.902Z,91.36
2022-09-12T01:59:10.669Z,92.17
2022-09-12T02:01:45.707Z,90.63
2022-09-12T02:04:19.829Z,89.93
2022-09-12T02:06:50.481Z,90.61
2022-09-12T02:09:24.088Z,90.23
2022-09-12T02:11:58.126Z,88.90
2022-09-12T02:14:30.205Z,91.18
2022-09-12T02:17:01.489Z,92.90
2022-09-12T02:19:35.499Z,91.58
2022-09-12T02:22:06.046Z,92.49
2022-09-12T02:24:38.000Z,91.46
2022-09-12T02:27:11.899Z,92.20
2022-09-12T02:29:39.963Z,90.24
2022-09-12T02:32:15.684Z,94.02
2022-09-12T02:34:50.918Z,92.88
2022-09-12T02:37:27.270Z,91.97
2022-09-12T02:39:57.243Z,92.49
2022-09-12T02:42:25.645Z,93.12
2022-09-12T02:44:57.209Z,95.57
2022-09-12T02:47:30.090Z,94.77
2022-09-12T02:50:00.900Z,96.02
2022-09-12T02:52:30.045Z,93.77
2022-09-12T02:54:59.431Z,94.02
2022-09-12T02:57:27.688Z,94.23
2022-09-12T02:59:59.286Z,93.24
2022-09-12T03:02:36.822Z,93.34
2022-09-12T03:05:19.765Z,93.22
2022-09-12T03:08:04.844Z,95.03
2022-09-12T03:10:41.854Z,94.20
2022-09-12T03:13:21.780Z,94.86
2022-09-12T03:16:02.049Z,94.44
2022-09-12T03:18:43.470Z,94.45
2022-09-12T03:21:19.312Z,94.76
2022-09-12T03:23:59.949Z,94.72
2022-09-12T03:26:33.726Z,95.48
2022-09-12T03:29:03.258Z,93.81
2022-09-12T03:31:31.847Z,95.21
2022-09-12T03:34:00.947Z,94.83
2022-09-12T03:36:31.580Z,95.33
2022-09-12T03:38:59.469Z,96.73
2022-09-12T03:41:27.454Z,94.89
2022-09-12T03:43:57.049Z,96.40
2022-09-12T03:46:24.994Z,96.26
2022-09-12T03:48:52.935Z,96.28
2022-09-12T03:51:20.970Z,95.86
2022-09-12T03:53:50.329Z,96.55
2022-09-12T03:56:19.462Z,96.35
2022-09-12T03:58:47.963Z,97.86
2022-09-12T04:01:17.931Z,98.26
2022-09-12T04:03:47.609Z,97.82
2022-09-12T04:06:17.954Z,97.22
2022-09-12T04:08:49.032Z,98.98
2022-09-12T04:11:19.789Z,99.97
2022-09-12T04:13:48.658Z,99.13
2022-09-12T04:16:17.872Z,97.89
2022-09-12T04:18:46.667Z,97.08
2022-09-12T04:21:17.142Z,99.18
2022-09-12T04:23:45.434Z,99.87
2022-09-12T04:26:13.944Z,100.00
2022-09-12T04:28:43.492Z,99.62
2022-09-12T04:31:15.717Z,99.32
2022-09-12T04:33:43.713Z,99.15
2022-09-12T04:36:14.511Z,100.00
2022-09-12T04:38:42.415Z,99.02
2022-09-12T04:41:14.573Z,98.03
2022-09-12T04:43:46.448Z,97.67
2022-09-12T04:46:16.753Z,98.83
2022-09-12T04:48:44.886Z,98.63
2022-09-12T04:51:14.617Z,98.46
2022-09-12T04:53:43.222Z,98.34
2022-09-12T04:56:12.753Z,97.84
2022-09-12T04:58:40.672Z,96.38
2022-09-12T05:01:12.254Z,97.14
2022-09-12T05:03:43.479Z,96.13
2022-09-12T05:06:13.708Z,97.17
2022-09-12T05:08:41.798Z,97.27
2022-09-12T05:11:13.488Z,96.91
2022-09-12T05:13:41.890Z,97.34
2022-09-12T05:16:12.753Z,99.37
2022-09-12T05:18:40.717Z,97.65
2022-09-12T05:21:10.484Z,95.21
2022-09-12T05:23:38.468Z,95.65
2022-09-12T05:26:08.183Z,92.63
2022-09-12T05:28:37.863Z,90.86
2022-09-12T05:31:07.539Z,89.64
2022-09-12T05:33:38.230Z,89.26
2022-09-12T05:36:08.453Z,88.95
2022-09-12T05:38:36.665Z,87.01
2022-09-12T05:41:06.338Z,85.75
2022-09-12T05:43:34.870Z,85.69
2022-09-12T05:46:03.836Z,86.32
2022-09-12T05:48:32.772Z,83.64
2022-09-12T05:51:03.666Z,83.25
2022-09-12T05:53:32.559Z,83.65
2022-09-12T05:56:07.482Z,79.83
2022-09-12T05:58:36.328Z,80.92
2022-09-12T06:01:05.830Z,80.34
2022-09-12T06:03:33.778Z,80.27
2022-09-12T06:06:07.828Z,77.71
2022-09-12T06:08:36.566Z,78.11
2022-09-12T06:11:07.031Z,76.79
2022-09-12T06:13:37.775Z,76.23
2022-09-12T06:16:06.789Z,76.05
2022-09-12T06:18:35.608Z,75.68
2022-09-12T06:21:04.922Z,74.04
2022-09-12T06:23:34.633Z,72.74
2022-09-12T06:26:03.323Z,74.65
2022-09-12T06:28:31.939Z,73.98
2022-09-12T06:31:05.655Z,72.81
2022-09-12T06:33:34.705Z,73.28
2022-09-12T06:36:11.542Z,73.18
2022-09-12T06:38:42.058Z,74.07
2022-09-12T06:41:12.564Z,70.77
2022-09-12T06:43:41.184Z,69.35
2022-09-12T06:46:09.782Z,69.20
2022-09-12T06:48:41.710Z,68.18
2022-09-12T06:51:13.478Z,67.33
2022-09-12T06:53:44.780Z,69.39
2022-09-12T06:56:14.689Z,66.05
2022-09-12T06:58:43.505Z,68.43
2022-09-12T07:01:13.754Z,66.79
2022-09-12T07:03:42.351Z,67.77
2022-09-12T07:06:13.204Z,66.03
2022-09-12T07:08:42.626Z,66.07
2022-09-12T07:11:13.423Z,63.53
2022-09-12T07:13:42.550Z,64.27
2022-09-12T07:16:14.858Z,63.24
2022-09-12T07:18:46.758Z,63.52
2022-09-12T07:21:16.087Z,63.39
2022-09-12T07:23:45.753Z,62.02
2022-09-12T07:26:15.543Z,59.22
2022-09-12T07:28:44.353Z,58.94
2022-09-12T07:31:14.179Z,60.84
2022-09-12T07:33:43.194Z,60.66
2022-09-12T07:36:13.694Z,60.13
2022-09-12T07:38:42.054Z,57.25
2022-09-12T07:41:15.778Z,58.03
2022-09-12T07:43:43.702Z,56.01
2022-09-12T07:46:11.730Z,55.41
2022-09-12T07:48:41.075Z,56.44
2022-09-12T07:51:11.619Z,57.73
2022-09-12T07:53:41.198Z,60.46
2022-09-12T07:56:11.310Z,57.04
2022-09-12T07:58:42.220Z,57.03
2022-09-12T08:01:13.520Z,57.91
2022-09-12T08:03:42.272Z,56.23
2022-09-12T08:06:12.188Z,56.59
2022-09-12T08:08:40.239Z,57.30
2022-09-12T08:11:09.872Z,60.73
2022-09-12T08:13:41.400Z,56.99
2022-09-12T08:16:13.183Z,58.83
2022-09-12T08:18:41.729Z,56.36
2022-09-12T08:21:14.107Z,59.04
2022-09-12T08:23:42.568Z,56.60
2022-09-12T08:26:11.346Z,61.13
2022-09-12T08:28:41.855Z,57.41
2022-09-12T08:31:13.759Z,57.31
2022-09-12T08:33:41.888Z,59.32
2022-09-12T08:36:12.882Z,59.84
2022-09-12T08:38:42.522Z,60.15
2022-09-12T08:41:15.394Z,56.34
2022-09-12T08:44:10.050Z,57.16
2022-09-12T08:46:45.958Z,56.38
2022-09-12T08:49:21.229Z,55.22
2022-09-12T08:51:49.222Z,54.45
2022-09-12T08:54:25.231Z,53.03
2022-09-12T08:56:56.571Z,54.17
2022-09-12T08:59:26.205Z,52.01
2022-09-12T09:01:58.954Z,51.90
2022-09-12T09:04:43.992Z,49.89
2022-09-12T09:07:34.789Z,50.70
2022-09-12T09:10:14.866Z,52.62
2022-09-12T09:12:54.658Z,51.18
2022-09-12T09:15:48.700Z,52.87
2022-09-12T09:18:22.768Z,50.10
2022-09-12T09:20:54.310Z,49.76
2022-09-12T09:23:27.285Z,50.12
2022-09-12T09:26:00.252Z,51.26
2022-09-12T09:28:37.626Z,49.96
2022-09-12T09:31:15.627Z,49.07
2022-09-12T09:33:44.907Z,48.09
2022-09-12T09:36:22.499Z,48.22
2022-09-12T09:38:56.250Z,46.93
2022-09-12T09:41:36.598Z,47.85
2022-09-12T09:44:05.217Z,46.90
2022-09-12T09:46:34.854Z,47.75
2022-09-12T09:49:04.429Z,46.26
2022-09-12T09:51:36.197Z,45.81
2022-09-12T09:54:12.301Z,46.48
2022-09-12T09:56:42.639Z,46.35
2022-09-12T09:59:12.921Z,44.72
2022-09-12T10:01:48.047Z,48.90
2022-09-12T10:04:21.204Z,46.94
2022-09-12T10:06:52.218Z,44.90
2022-09-12T10:09:26.073Z,46.24
2022-09-12T10:11:55.466Z,45.31
2022-09-12T10:14:41.614Z,46.00
2022-09-12T10:17:43.254Z,43.39
2022-09-12T10:20:31.759Z,44.48
2022-09-12T10:23:02.056Z,45.09
2022-09-12T10:25:30.479Z,45.55
2022-09-12T10:28:01.189Z,46.01
2022-09-12T10:30:29.987Z,44.43
2022-09-12T10:33:07.646Z,47.29
2022-09-12T10:35:46.941Z,44.95
2022-09-12T10:38:22.536Z,43.83
2022-09-12T10:40:59.343Z,44.82
2022-09-12T10:43:36.212Z,44.63
2022-09-12T10:46:23.892Z,43.47
2022-09-12T10:49:13.512Z,45.67
2022-09-12T10:51:41.532Z,43.96
2022-09-12T10:54:13.638Z,47.39
2022-09-12T10:56:53.515Z,46.96
2022-09-12T10:59:32.422Z,44.98
2022-09-12T11:02:02.915Z,43.92
2022-09-12T11:04:47.577Z,47.23
2022-09-12T11:07:30.555Z,46.42
2022-09-12T11:10:07.177Z,46.00
2022-09-12T11:12:41.893Z,41.71
2022-09-12T11:15:30.069Z,43.93
2022-09-12T11:18:06.745Z,43.42
2022-09-12T11:20:55.005Z,45.25
2022-09-12T11:24:11.345Z,44.22
2022-09-12T11:26:51.892Z,43.74
2022-09-12T11:29:30.514Z,44.86
2022-09-12T11:32:12.226Z,43.85
2022-09-12T11:34:53.492Z,46.58
2022-09-12T11:37:36.131Z,48.53
2022-09-12T11:40:16.456Z,48.58
2022-09-12T11:42:46.981Z,47.40
2022-09-12T11:45:20.869Z,47.19
2022-09-12T11:47:55.140Z,49.08
2022-09-12T11:50:29.848Z,49.40
2022-09-12T11:53:04.448Z,49.85
2022-09-12T11:55:48.337Z,45.96
2022-09-12T11:58:18.168Z,47.38
2022-09-12T12:00:52.006Z,49.17
2022-09-12T12:03:33.353Z,49.14
2022-09-12T12:06:05.869Z,46.55
2022-09-12T12:08:40.589Z,46.86
2022-09-12T12:11:10.027Z,45.13
2022-09-12T12:13:41.104Z,44.13
2022-09-12T12:16:15.173Z,47.50
2022-09-12T12:18:44.527Z,43.72
2022-09-12T12:21:36.333Z,45.50
2022-09-12T12:24:17.804Z,43.59
2022-09-12T12:26:57.451Z,45.52
2022-09-12T12:29:44.593Z,46.46
2022-09-12T12:32:28.509Z,47.59
2022-09-12T12:35:39.070Z,45.00
2022-09-12T12:38:28.459Z,46.86
2022-09-12T12:41:32.566Z,48.77
2022-09-12T12:44:20.281Z,44.19
2022-09-12T12:47:15.798Z,46.18
2022-09-12T12:49:43.809Z,49.09
2022-09-12T12:52:18.082Z,47.53
2022-09-12T12:54:57.530Z,47.99
2022-09-12T12:57:52.168Z,45.99
2022-09-12T13:00:35.433Z,44.23
2022-09-12T13:03:12.474Z,43.75
2022-09-12T13:05:43.729Z,42.13
2022-09-12T13:08:13.259Z,47.51
2022-09-12T13:10:51.612Z,42.27
2022-09-12T13:13:26.800Z,46.22
2022-09-12T13:15:55.377Z,46.08
2022-09-12T13:18:30.274Z,47.98
2022-09-12T13:21:09.036Z,42.53
2022-09-12T13:23:37.184Z,40.43
2022-09-12T13:26:12.662Z,42.81
2022-09-12T13:28:42.039Z,49.40
2022-09-12T13:31:19.069Z,49.81
2022-09-12T13:33:49.509Z,47.83
2022-09-12T13:36:42.479Z,48.30
2022-09-12T13:39:20.304Z,49.54
2022-09-12T13:42:17.924Z,49.93
2022-09-12T13:44:50.867Z,50.39
2022-09-12T13:47:25.978Z,49.67
2022-09-12T13:49:55.380Z,49.62
2022-09-12T13:52:26.846Z,49.90
2022-09-12T13:54:58.286Z,52.19
2022-09-12T13:57:32.322Z,49.81
2022-09-12T14:00:04.412Z,52.12
2022-09-12T14:02:37.850Z,52.15
2022-09-12T14:05:20.163Z,51.35
2022-09-12T14:07:57.304Z,53.62
2022-09-12T14:10:31.955Z,54.37
2022-09-12T14:13:01.688Z,52.93
2022-09-12T14:15:33.442Z,54.90
2022-09-12T14:18:03.773Z,50.89
2022-09-12T14:20:33.442Z,53.35
2022-09-12T14:23:03.630Z,53.79
2022-09-12T14:25:39.119Z,53.56
2022-09-12T14:28:07.806Z,49.25
2022-09-12T14:30:38.249Z,48.00
2022-09-12T14:33:20.885Z,51.92
2022-09-12T14:35:51.621Z,53.94
2022-09-12T14:38:25.666Z,53.85
2022-09-12T14:41:00.878Z,49.90
2022-09-12T14:43:30.867Z,53.25
2022-09-12T14:46:02.663Z,53.58
2022-09-12T14:48:33.408Z,54.21
2022-09-12T14:51:01.509Z,52.75
2022-09-12T14:53:34.900Z,55.55
2022-09-12T14:56:12.531Z,55.52
2022-09-12T14:58:41.567Z,55.28
2022-09-12T15:01:31.679Z,55.76
2022-09-12T15:03:59.678Z,53.99
2022-09-12T15:06:30.833Z,53.35
2022-09-12T15:09:00.443Z,56.79
2022-09-12T15:11:28.379Z,57.15
2022-09-12T15:13:56.493Z,58.26
2022-09-12T15:16:24.490Z,53.41
2022-09-12T15:18:53.792Z,52.66
2022-09-12T15:21:22.334Z,50.57
2022-09-12T15:23:51.450Z,47.82
2022-09-12T15:26:21.862Z,52.89
2022-09-12T15:28:52.111Z,57.08
2022-09-12T15:31:26.226Z,58.89
2022-09-12T15:33:57.107Z,72.33
2022-09-12T15:36:25.928Z,80.33
2022-09-12T15:38:54.486Z,79.80
2022-09-12T15:41:24.427Z,81.28
2022-09-12T15:43:52.759Z,85.07
2022-09-12T15:46:21.448Z,86.36
2022-09-12T15:48:50.444Z,88.43
2022-09-12T15:51:21.634Z,90.03
2022-09-12T15:53:50.622Z,89.75
2022-09-12T15:56:21.161Z,89.46
2022-09-12T15:58:58.905Z,88.68
2022-09-12T16:01:28.390Z,88.65
2022-09-12T16:03:56.583Z,89.56
2022-09-12T16:06:25.965Z,91.96
2022-09-12T16:08:53.914Z,91.07
2022-09-12T16:11:24.339Z,91.27
2022-09-12T16:13:53.896Z,90.66
2022-09-12T16:16:22.193Z,90.54
2022-09-12T16:18:50.290Z,92.74
2022-09-12T16:21:18.328Z,93.75
2022-09-12T16:23:49.074Z,93.69
2022-09-12T16:26:17.869Z,93.38
2022-09-12T16:28:46.101Z,93.98
2022-09-12T16:31:15.185Z,94.20
2022-09-12T16:33:43.194Z,93.32
2022-09-12T16:36:12.587Z,93.39
2022-09-12T16:38:44.010Z,92.98
2022-09-12T16:41:14.466Z,93.50
2022-09-12T16:43:43.060Z,93.77
2022-09-12T16:46:13.218Z,93.77
2022-09-12T16:48:48.062Z,93.42
2022-09-12T16:51:20.891Z,94.04
2022-09-12T16:53:49.772Z,94.00
2022-09-12T16:56:19.468Z,93.73
2022-09-12T16:58:47.798Z,94.37
2022-09-12T17:01:17.723Z,95.00
2022-09-12T17:03:46.230Z,94.68
2022-09-12T17:06:16.546Z,95.32
2022-09-12T17:08:46.260Z,96.09
2022-09-12T17:11:17.221Z,96.69
2022-09-12T17:14:06.654Z,97.08
2022-09-12T17:16:37.143Z,98.47
2022-09-12T17:19:06.024Z,98.60
2022-09-12T17:21:34.390Z,98.43
2022-09-12T17:24:02.579Z,98.91
2022-09-12T17:26:30.621Z,100.00
2022-09-12T17:28:59.950Z,100.00
2022-09-12T17:31:28.003Z,99.56
2022-09-12T17:33:58.358Z,96.58
2022-09-12T17:36:26.746Z,96.43
2022-09-12T17:38:55.370Z,96.68
2022-09-12T17:41:25.616Z,96.62
2022-09-12T17:43:57.419Z,97.25
2022-09-12T17:46:31.838Z,98.69
2022-09-12T17:49:01.052Z,100.00
2022-09-12T17:51:30.847Z,100.00
2022-09-12T17:54:01.195Z,100.00
2022-09-12T17:56:30.837Z,100.00
2022-09-12T17:59:00.237Z,100.00
2022-09-12T18:01:47.930Z,100.00
2022-09-12T18:04:16.591Z,100.00
2022-09-12T18:06:48.184Z,100.00
2022-09-12T18:09:18.060Z,100.00
2022-09-12T18:11:46.340Z,100.00
2022-09-12T18:14:14.717Z,100.00
2022-09-12T18:16:44.332Z,100.00
2022-09-12T18:19:12.662Z,100.00
2022-09-12T18:21:41.208Z,100.00
2022-09-12T18:24:10.866Z,100.00
2022-09-12T18:26:39.202Z,100.00
2022-09-12T18:29:07.845Z,100.00
2022-09-12T18:31:36.047Z,100.00
2022-09-12T18:34:06.302Z,100.00
2022-09-12T18:36:34.308Z,100.00
2022-09-12T18:39:02.265Z,100.00
2022-09-12T18:41:30.188Z,100.00
2022-09-12T18:43:59.784Z,100.00
2022-09-12T18:46:29.037Z,100.00
2022-09-12T18:48:59.722Z,100.00
2022-09-12T18:51:31.625Z,100.00
2022-09-12T18:54:01.494Z,100.00
2022-09-12T18:56:33.015Z,100.00
2022-09-12T18:59:01.896Z,100.00
2022-09-12T19:01:31.715Z,100.00
2022-09-12T19:04:01.008Z,100.00
2022-09-12T19:06:32.224Z,100.00
2022-09-12T19:09:05.130Z,100.00
2022-09-12T19:11:35.739Z,100.00
2022-09-12T19:14:03.675Z,100.00
2022-09-12T19:16:31.605Z,100.00
2022-09-12T19:19:00.145Z,100.00
2022-09-12T19:21:31.350Z,100.00
2022-09-12T19:24:02.225Z,100.00
2022-09-12T19:26:30.864Z,100.00
2022-09-12T19:28:59.458Z,100.00
2022-09-12T19:31:27.860Z,100.00
2022-09-12T19:34:01.096Z,100.00
2022-09-12T19:36:47.273Z,100.00
2022-09-12T19:39:16.961Z,100.00
2022-09-12T19:41:45.651Z,100.00
2022-09-12T19:44:13.888Z,100.00
2022-09-12T19:46:41.924Z,100.00
2022-09-12T19:49:11.418Z,100.00
2022-09-12T19:51:41.050Z,100.00
2022-09-12T19:54:09.262Z,100.00
2022-09-12T19:56:37.301Z,100.00
2022-09-12T19:59:05.254Z,100.00
2022-09-12T20:01:33.292Z,100.00
2022-09-12T20:04:01.245Z,100.00
2022-09-12T20:06:29.365Z,100.00
2022-09-12T20:08:59.152Z,100.00
2022-09-12T20:11:27.172Z,100.00
2022-09-12T20:13:55.226Z,100.00
2022-09-12T20:16:25.819Z,100.00
2022-09-12T20:18:55.612Z,100.00
2022-09-12T20:21:31.373Z,100.00
2022-09-12T20:24:06.833Z,100.00
2022-09-12T20:26:35.119Z,100.00
2022-09-12T20:29:03.746Z,100.00
2022-09-12T20:31:32.120Z,100.00
2022-09-12T20:34:00.751Z,100.00
2022-09-12T20:36:29.039Z,100.00
2022-09-12T20:39:00.162Z,100.00
2022-09-12T20:41:31.710Z,100.00
2022-09-12T20:44:00.092Z,100.00
2022-09-12T20:46:29.601Z,100.00
2022-09-12T20:48:58.599Z,100.00
2022-09-12T20:51:29.646Z,100.00
2022-09-12T20:53:58.567Z,100.00
2022-09-12T20:56:27.687Z,100.00
2022-09-12T20:58:57.494Z,100.00
2022-09-12T21:01:27.102Z,100.00
2022-09-12T21:03:55.310Z,100.00
2022-09-12T21:06:23.984Z,100.00
2022-09-12T21:08:52.177Z,100.00
2022-09-12T21:11:21.326Z,100.00
2022-09-12T21:13:49.440Z,100.00
2022-09-12T21:16:21.102Z,100.00
2022-09-12T21:18:54.029Z,100.00
2022-09-12T21:21:22.318Z,100.00
2022-09-12T21:23:50.861Z,99.64
2022-09-12T21:26:19.401Z,99.11
2022-09-12T21:28:47.518Z,98.43
2022-09-12T21:32:14.053Z,96.84
2022-09-12T21:34:43.639Z,96.26
2022-09-12T21:37:11.438Z,96.36
2022-09-12T21:39:39.347Z,96.93
2022-09-12T21:42:07.395Z,97.20
2022-09-12T21:44:35.311Z,97.63
2022-09-12T21:47:03.141Z,97.47
2022-09-12T21:49:31.010Z,97.84
2022-09-12T21:52:00.247Z,97.94
2022-09-12T21:54:28.023Z,98.08
2022-09-12T21:56:55.918Z,98.38
2022-09-12T21:59:23.688Z,98.98
2022-09-12T22:01:51.518Z,98.75
2022-09-12T22:04:19.282Z,98.06
2022-09-12T22:06:47.031Z,98.15
2022-09-12T22:09:16.935Z,97.90
2022-09-12T22:11:45.080Z,98.81
2022-09-12T22:14:12.848Z,98.45
2022-09-12T22:16:40.591Z,99.21
2022-09-12T22:19:08.497Z,99.04
2022-09-12T22:21:56.199Z,98.72
2022-09-12T22:24:29.942Z,98.61
2022-09-12T22:26:59.346Z,99.85
2022-09-12T22:29:27.163Z,99.80
2022-09-12T22:31:54.867Z,100.00
2022-09-12T22:34:22.775Z,98.91
2022-09-12T22:36:50.468Z,99.12
2022-09-12T22:39:18.284Z,98.52
2022-09-12T22:41:47.544Z,99.60
2022-09-12T22:44:17.756Z,99.82
2022-09-12T22:46:45.927Z,99.10
2022-09-12T22:49:13.859Z,97.44
2022-09-12T22:51:41.538Z,96.88
2022-09-12T22:54:10.940Z,98.02
2022-09-12T22:56:39.657Z,97.83
2022-09-12T22:59:08.933Z,98.21
2022-09-12T23:01:37.056Z,99.22
2022-09-12T23:04:05.307Z,100.00
2022-09-12T23:06:33.059Z,100.00
2022-09-12T23:09:00.779Z,100.00
2022-09-12T23:11:28.816Z,100.00
2022-09-12T23:13:56.524Z,100.00
2022-09-12T23:16:28.341Z,99.70
2022-09-12T23:18:56.628Z,99.16
2022-09-12T23:21:24.463Z,98.72
2022-09-12T23:23:52.295Z,97.31
2022-09-12T23:26:22.504Z,97.20
2022-09-12T23:28:52.855Z,97.19
2022-09-12T23:31:21.192Z,97.63
2022-09-12T23:33:51.105Z,97.59
2022-09-12T23:36:18.841Z,97.97
2022-09-12T23:38:47.812Z,97.73
2022-09-12T23:41:16.901Z,97.35
2022-09-12T23:43:45.568Z,97.08
2022-09-12T23:46:14.495Z,97.04
2022-09-12T23:48:43.293Z,96.95
2022-09-12T23:51:13.140Z,97.47
2022-09-12T23:53:41.224Z,98.39
2022-09-12T23:56:09.480Z,98.60
2022-09-12T23:58:38.117Z,99.57
